KAL485 RKSI-VVPQ
Flight info
| Callsign | KAL485 |
|---|---|
| Flight time | N/A |
| Altitude | 34000 |
| Route | BOPTA2Y BOPTA Z51 BEDES Y711 MUGUS Y742 SALMI Q11 TACLE Q12 KABAM/N0470F350 N892 DALRA/N0466F360 N892 MIGUG/K0863F360 N892 MESOX L628 VEPAM L642 SOSPA W15 AC/K0845F280 W1 TSH W17 TUNPO TATEM1B |
| Aircraft | A21N/M-SDE2E3FGHIRWXY/LB1 |
Departure
| Time | 2026-05-04 12:49 |
|---|---|
| Airport | Incheon International Airport (RKSI) |
Arrival
| Time | N/A |
|---|---|
| Airport | Phú Quốc International Airport (VVPQ) |
| Time | Latitude | Longitude | Altitude | Speed | Heading |
|---|---|---|---|---|---|
| 2026-05-04 12:31 | 37.46402 | 126.43168 | 28 ft | 0 kts | 66° |
| 2026-05-04 12:34 | 37.46401 | 126.43168 | 29 ft | 0 kts | 66° |
| 2026-05-04 12:34 | 37.46399 | 126.43160 | 29 ft | 2 kts | 66° |
| 2026-05-04 12:34 | 37.46391 | 126.43138 | 29 ft | 2 kts | 66° |
| 2026-05-04 12:34 | 37.46386 | 126.43121 | 29 ft | 2 kts | 66° |
| 2026-05-04 12:35 | 37.46379 | 126.43104 | 29 ft | 2 kts | 66° |
| 2026-05-04 12:35 | 37.46375 | 126.43090 | 29 ft | 2 kts | 66° |
| 2026-05-04 12:35 | 37.46370 | 126.43072 | 29 ft | 2 kts | 84° |
| 2026-05-04 12:35 | 37.46370 | 126.43053 | 29 ft | 2 kts | 103° |
| 2026-05-04 12:36 | 37.46377 | 126.43035 | 29 ft | 2 kts | 125° |
| 2026-05-04 12:36 | 37.46386 | 126.43022 | 29 ft | 2 kts | 143° |
| 2026-05-04 12:36 | 37.46394 | 126.43016 | 29 ft | 1 kts | 156° |
| 2026-05-04 12:36 | 37.46400 | 126.43013 | 29 ft | 0 kts | 157° |
| 2026-05-04 12:40 | 37.46398 | 126.43014 | 28 ft | 1 kts | 157° |
| 2026-05-04 12:40 | 37.46370 | 126.43029 | 28 ft | 7 kts | 157° |
| 2026-05-04 12:40 | 37.46307 | 126.43065 | 28 ft | 12 kts | 155° |
| 2026-05-04 12:41 | 37.46222 | 126.43114 | 28 ft | 16 kts | 155° |
| 2026-05-04 12:41 | 37.46130 | 126.43179 | 28 ft | 17 kts | 144° |
| 2026-05-04 12:41 | 37.46024 | 126.43273 | 29 ft | 19 kts | 145° |
| 2026-05-04 12:41 | 37.45909 | 126.43203 | 28 ft | 19 kts | 187° |
| 2026-05-04 12:42 | 37.45792 | 126.43291 | 28 ft | 21 kts | 143° |
| 2026-05-04 12:42 | 37.45665 | 126.43404 | 28 ft | 22 kts | 144° |
| 2026-05-04 12:42 | 37.45541 | 126.43514 | 28 ft | 21 kts | 145° |
| 2026-05-04 12:42 | 37.45412 | 126.43629 | 28 ft | 23 kts | 144° |
| 2026-05-04 12:43 | 37.45274 | 126.43752 | 28 ft | 24 kts | 145° |
| 2026-05-04 12:43 | 37.45136 | 126.43874 | 28 ft | 24 kts | 144° |
| 2026-05-04 12:43 | 37.44996 | 126.44002 | 29 ft | 25 kts | 143° |
| 2026-05-04 12:43 | 37.44856 | 126.44132 | 28 ft | 23 kts | 143° |
| 2026-05-04 12:44 | 37.44726 | 126.44247 | 28 ft | 22 kts | 144° |
| 2026-05-04 12:44 | 37.44603 | 126.44352 | 29 ft | 20 kts | 144° |
| 2026-05-04 12:44 | 37.44504 | 126.44413 | 28 ft | 12 kts | 202° |
| 2026-05-04 12:44 | 37.44447 | 126.44326 | 29 ft | 12 kts | 233° |
| 2026-05-04 12:45 | 37.44423 | 126.44282 | 29 ft | 0 kts | 234° |
| 2026-05-04 12:46 | 37.44410 | 126.44260 | 28 ft | 6 kts | 235° |
| 2026-05-04 12:46 | 37.44370 | 126.44190 | 29 ft | 13 kts | 232° |
| 2026-05-04 12:47 | 37.44371 | 126.44140 | 28 ft | 5 kts | 325° |
| 2026-05-04 12:47 | 37.44374 | 126.44137 | 28 ft | 0 kts | 324° |
| 2026-05-04 12:48 | 37.44375 | 126.44136 | 28 ft | 0 kts | 324° |
| 2026-05-04 12:48 | 37.44432 | 126.44086 | 29 ft | 37 kts | 325° |
| 2026-05-04 12:49 | 37.44832 | 126.43730 | 29 ft | 103 kts | 324° |
| 2026-05-04 12:49 | 37.45582 | 126.43062 | 29 ft | 159 kts | 324° |
| 2026-05-04 12:49 | 37.46598 | 126.42163 | 255 ft | 187 kts | 323° |
| 2026-05-04 12:49 | 37.47656 | 126.41207 | 896 ft | 188 kts | 318° |
| 2026-05-04 12:50 | 37.48558 | 126.40062 | 1630 ft | 186 kts | 306° |
| 2026-05-04 12:50 | 37.49296 | 126.38722 | 2113 ft | 190 kts | 300° |
| 2026-05-04 12:50 | 37.49997 | 126.37237 | 2382 ft | 204 kts | 293° |
| 2026-05-04 12:50 | 37.50378 | 126.35452 | 2603 ft | 221 kts | 274° |
| 2026-05-04 12:51 | 37.50465 | 126.33446 | 2956 ft | 235 kts | 272° |
| 2026-05-04 12:51 | 37.50518 | 126.31320 | 3400 ft | 244 kts | 272° |
| 2026-05-04 12:51 | 37.50565 | 126.29179 | 4002 ft | 247 kts | 272° |
| 2026-05-04 12:51 | 37.50614 | 126.26984 | 4619 ft | 250 kts | 272° |
| 2026-05-04 12:52 | 37.50665 | 126.24789 | 5208 ft | 253 kts | 272° |
| 2026-05-04 12:52 | 37.50718 | 126.22563 | 5796 ft | 256 kts | 273° |
| 2026-05-04 12:52 | 37.50618 | 126.20294 | 6363 ft | 262 kts | 256° |
| 2026-05-04 12:52 | 37.49758 | 126.18273 | 6913 ft | 270 kts | 229° |
| 2026-05-04 12:53 | 37.48189 | 126.16917 | 7481 ft | 278 kts | 205° |
| 2026-05-04 12:53 | 37.46370 | 126.16055 | 8064 ft | 282 kts | 201° |
| 2026-05-04 12:53 | 37.44513 | 126.15232 | 8605 ft | 285 kts | 201° |
| 2026-05-04 12:53 | 37.42597 | 126.14511 | 9133 ft | 291 kts | 188° |
| 2026-05-04 12:54 | 37.40579 | 126.14765 | 9622 ft | 297 kts | 159° |
| 2026-05-04 12:54 | 37.38865 | 126.16187 | 10118 ft | 299 kts | 133° |
| 2026-05-04 12:54 | 37.37490 | 126.18153 | 10479 ft | 308 kts | 128° |
| 2026-05-04 12:54 | 37.36097 | 126.20286 | 10719 ft | 321 kts | 128° |
| 2026-05-04 12:55 | 37.34670 | 126.22432 | 10949 ft | 334 kts | 129° |
| 2026-05-04 12:55 | 37.33138 | 126.24674 | 11176 ft | 346 kts | 130° |
| 2026-05-04 12:55 | 37.31514 | 126.27011 | 11415 ft | 358 kts | 130° |
| 2026-05-04 12:55 | 37.29838 | 126.29408 | 11630 ft | 370 kts | 130° |
| 2026-05-04 12:56 | 37.28114 | 126.31870 | 11838 ft | 382 kts | 130° |
| 2026-05-04 12:56 | 37.26333 | 126.34410 | 12038 ft | 393 kts | 130° |
| 2026-05-04 12:56 | 37.24507 | 126.37013 | 12231 ft | 403 kts | 130° |
| 2026-05-04 12:56 | 37.22634 | 126.39682 | 12415 ft | 413 kts | 130° |
| 2026-05-04 12:57 | 37.20621 | 126.42342 | 12693 ft | 421 kts | 137° |
| 2026-05-04 12:57 | 37.18274 | 126.44527 | 13116 ft | 424 kts | 148° |
| 2026-05-04 12:57 | 37.15624 | 126.46149 | 13561 ft | 425 kts | 158° |
| 2026-05-04 12:57 | 37.12853 | 126.47463 | 13999 ft | 427 kts | 160° |
| 2026-05-04 12:58 | 37.10035 | 126.48740 | 14389 ft | 429 kts | 160° |
| 2026-05-04 12:58 | 37.07229 | 126.50029 | 14770 ft | 432 kts | 159° |
| 2026-05-04 12:58 | 37.04386 | 126.51308 | 15147 ft | 434 kts | 161° |
| 2026-05-04 12:58 | 37.01508 | 126.52390 | 15512 ft | 436 kts | 164° |
| 2026-05-04 12:59 | 36.98532 | 126.53381 | 15881 ft | 438 kts | 165° |
| 2026-05-04 12:59 | 36.95608 | 126.54341 | 16229 ft | 440 kts | 165° |
| 2026-05-04 12:59 | 36.92618 | 126.55324 | 16579 ft | 442 kts | 165° |
| 2026-05-04 12:59 | 36.89698 | 126.56284 | 16926 ft | 444 kts | 165° |
| 2026-05-04 13:00 | 36.86662 | 126.57279 | 17253 ft | 446 kts | 165° |
| 2026-05-04 13:00 | 36.83667 | 126.58260 | 17562 ft | 448 kts | 165° |
| 2026-05-04 13:00 | 36.80818 | 126.59196 | 17850 ft | 450 kts | 165° |
| 2026-05-04 13:00 | 36.77654 | 126.60236 | 18161 ft | 451 kts | 165° |
| 2026-05-04 13:01 | 36.74578 | 126.61249 | 18453 ft | 453 kts | 165° |
| 2026-05-04 13:01 | 36.71470 | 126.61860 | 18664 ft | 456 kts | 180° |
| 2026-05-04 13:01 | 36.68322 | 126.61471 | 18964 ft | 455 kts | 190° |
| 2026-05-04 13:01 | 36.65219 | 126.60767 | 19264 ft | 456 kts | 192° |
| 2026-05-04 13:02 | 36.62078 | 126.60023 | 19543 ft | 457 kts | 192° |
| 2026-05-04 13:02 | 36.58953 | 126.59320 | 19810 ft | 459 kts | 191° |
| 2026-05-04 13:02 | 36.55796 | 126.58655 | 20072 ft | 460 kts | 191° |
| 2026-05-04 13:02 | 36.52591 | 126.58010 | 20327 ft | 462 kts | 190° |
| 2026-05-04 13:03 | 36.49416 | 126.57392 | 20582 ft | 463 kts | 190° |
| 2026-05-04 13:03 | 36.46215 | 126.56782 | 20823 ft | 465 kts | 190° |
| 2026-05-04 13:03 | 36.43022 | 126.56180 | 21059 ft | 466 kts | 190° |
| 2026-05-04 13:03 | 36.39813 | 126.55579 | 21298 ft | 467 kts | 191° |
| 2026-05-04 13:04 | 36.36597 | 126.54979 | 21535 ft | 468 kts | 191° |
| 2026-05-04 13:04 | 36.33381 | 126.54382 | 21765 ft | 469 kts | 191° |
| 2026-05-04 13:04 | 36.30133 | 126.53780 | 21997 ft | 470 kts | 191° |
| 2026-05-04 13:04 | 36.26881 | 126.53177 | 22221 ft | 471 kts | 191° |
| 2026-05-04 13:05 | 36.23598 | 126.52569 | 22435 ft | 472 kts | 191° |
| 2026-05-04 13:05 | 36.20351 | 126.51969 | 22645 ft | 473 kts | 191° |
| 2026-05-04 13:05 | 36.17115 | 126.51371 | 22846 ft | 474 kts | 191° |
| 2026-05-04 13:05 | 36.13866 | 126.50771 | 23048 ft | 475 kts | 191° |
| 2026-05-04 13:06 | 36.10574 | 126.50164 | 23240 ft | 476 kts | 192° |
| 2026-05-04 13:06 | 36.07271 | 126.49555 | 23432 ft | 476 kts | 192° |
| 2026-05-04 13:06 | 36.04014 | 126.48955 | 23627 ft | 477 kts | 192° |
| 2026-05-04 13:06 | 36.00723 | 126.48350 | 23803 ft | 478 kts | 192° |
| 2026-05-04 13:07 | 35.97387 | 126.47738 | 23993 ft | 478 kts | 192° |
| 2026-05-04 13:07 | 35.94113 | 126.47137 | 24291 ft | 475 kts | 192° |
| 2026-05-04 13:07 | 35.90829 | 126.46535 | 24594 ft | 473 kts | 192° |
| 2026-05-04 13:07 | 35.87687 | 126.45959 | 24841 ft | 472 kts | 192° |
| 2026-05-04 13:08 | 35.84388 | 126.45358 | 25078 ft | 471 kts | 192° |
| 2026-05-04 13:08 | 35.81186 | 126.44775 | 25309 ft | 470 kts | 192° |
| 2026-05-04 13:08 | 35.77948 | 126.44186 | 25542 ft | 469 kts | 193° |
| 2026-05-04 13:08 | 35.74709 | 126.43594 | 25777 ft | 468 kts | 193° |
| 2026-05-04 13:09 | 35.72143 | 126.43128 | 25964 ft | 467 kts | 193° |
| 2026-05-04 13:09 | 35.68896 | 126.42536 | 26197 ft | 466 kts | 193° |
| 2026-05-04 13:09 | 35.65670 | 126.41948 | 26422 ft | 465 kts | 193° |
| 2026-05-04 13:09 | 35.62458 | 126.41363 | 26651 ft | 464 kts | 193° |
| 2026-05-04 13:10 | 35.59273 | 126.40785 | 26889 ft | 462 kts | 193° |
| 2026-05-04 13:10 | 35.56101 | 126.40208 | 27123 ft | 461 kts | 193° |
| 2026-05-04 13:10 | 35.52932 | 126.39632 | 27347 ft | 460 kts | 193° |
| 2026-05-04 13:10 | 35.49780 | 126.39060 | 27562 ft | 459 kts | 193° |
| 2026-05-04 13:11 | 35.46610 | 126.38488 | 27792 ft | 458 kts | 193° |
| 2026-05-04 13:11 | 35.43486 | 126.37926 | 28027 ft | 457 kts | 193° |
| 2026-05-04 13:11 | 35.40334 | 126.37357 | 28265 ft | 455 kts | 193° |
| 2026-05-04 13:11 | 35.37187 | 126.36790 | 28506 ft | 454 kts | 193° |
| 2026-05-04 13:12 | 35.34105 | 126.36233 | 28745 ft | 452 kts | 194° |
| 2026-05-04 13:12 | 35.30941 | 126.35662 | 28984 ft | 451 kts | 194° |
| 2026-05-04 13:12 | 35.27879 | 126.35109 | 29225 ft | 449 kts | 194° |
| 2026-05-04 13:12 | 35.24784 | 126.34551 | 29473 ft | 447 kts | 194° |
| 2026-05-04 13:13 | 35.21676 | 126.33992 | 29714 ft | 446 kts | 194° |
| 2026-05-04 13:13 | 35.19625 | 126.33622 | 29867 ft | 445 kts | 194° |
| 2026-05-04 13:13 | 35.15598 | 126.32898 | 30202 ft | 442 kts | 194° |
| 2026-05-04 13:13 | 35.12605 | 126.32360 | 30445 ft | 440 kts | 195° |
| 2026-05-04 13:14 | 35.09565 | 126.31814 | 30693 ft | 438 kts | 195° |
| 2026-05-04 13:14 | 35.06555 | 126.31274 | 30950 ft | 436 kts | 195° |
| 2026-05-04 13:14 | 35.03561 | 126.30737 | 31196 ft | 434 kts | 195° |
| 2026-05-04 13:14 | 35.00570 | 126.30200 | 31438 ft | 432 kts | 195° |
| 2026-05-04 13:15 | 34.97574 | 126.29663 | 31692 ft | 430 kts | 196° |
| 2026-05-04 13:15 | 34.94644 | 126.29138 | 31934 ft | 427 kts | 196° |
| 2026-05-04 13:15 | 34.91686 | 126.28610 | 32168 ft | 425 kts | 196° |
| 2026-05-04 13:15 | 34.88791 | 126.28092 | 32392 ft | 424 kts | 196° |
| 2026-05-04 13:16 | 34.85839 | 126.27570 | 32636 ft | 421 kts | 197° |
| 2026-05-04 13:16 | 34.82970 | 126.27062 | 32858 ft | 420 kts | 197° |
| 2026-05-04 13:16 | 34.80019 | 126.26539 | 33096 ft | 417 kts | 197° |
| 2026-05-04 13:16 | 34.77168 | 126.26033 | 33317 ft | 415 kts | 197° |
| 2026-05-04 13:17 | 34.74317 | 126.25526 | 33523 ft | 414 kts | 197° |
| 2026-05-04 13:17 | 34.71473 | 126.25020 | 33737 ft | 412 kts | 198° |
| 2026-05-04 13:17 | 34.68653 | 126.24519 | 33951 ft | 410 kts | 198° |
| 2026-05-04 13:17 | 34.65810 | 126.24012 | 34104 ft | 408 kts | 198° |
| 2026-05-04 13:18 | 34.63000 | 126.23511 | 34111 ft | 407 kts | 198° |
| 2026-05-04 13:18 | 34.57429 | 126.22519 | 34119 ft | 406 kts | 198° |
| 2026-05-04 13:19 | 34.51824 | 126.21523 | 34121 ft | 405 kts | 198° |
| 2026-05-04 13:19 | 34.46250 | 126.20534 | 34122 ft | 404 kts | 198° |
| 2026-05-04 13:20 | 34.40702 | 126.19552 | 34122 ft | 404 kts | 198° |
| 2026-05-04 13:20 | 34.35104 | 126.18562 | 34122 ft | 404 kts | 198° |
| 2026-05-04 13:21 | 34.29549 | 126.17583 | 34121 ft | 403 kts | 198° |
| 2026-05-04 13:21 | 34.24017 | 126.16607 | 34121 ft | 403 kts | 198° |
| 2026-05-04 13:22 | 34.18451 | 126.15626 | 34123 ft | 403 kts | 198° |
| 2026-05-04 13:22 | 34.12888 | 126.14649 | 34129 ft | 402 kts | 199° |
| 2026-05-04 13:23 | 34.07355 | 126.13677 | 34136 ft | 402 kts | 199° |
| 2026-05-04 13:23 | 34.01826 | 126.12707 | 34144 ft | 402 kts | 199° |
| 2026-05-04 13:24 | 33.96284 | 126.11736 | 34148 ft | 402 kts | 199° |
| 2026-05-04 13:24 | 33.90745 | 126.10768 | 34149 ft | 402 kts | 199° |
| 2026-05-04 13:25 | 33.82440 | 126.09331 | 34151 ft | 402 kts | 198° |
| 2026-05-04 13:25 | 33.76924 | 126.08375 | 34149 ft | 402 kts | 199° |
| 2026-05-04 13:26 | 33.71395 | 126.07416 | 34152 ft | 401 kts | 199° |
| 2026-05-04 13:26 | 33.65884 | 126.06461 | 34150 ft | 400 kts | 199° |
| 2026-05-04 13:27 | 33.60396 | 126.05508 | 34150 ft | 400 kts | 199° |
| 2026-05-04 13:27 | 33.54855 | 126.04547 | 34156 ft | 400 kts | 199° |
| 2026-05-04 13:28 | 33.49361 | 126.03597 | 34168 ft | 398 kts | 199° |
| 2026-05-04 13:28 | 33.43905 | 126.02653 | 34174 ft | 398 kts | 199° |
| 2026-05-04 13:29 | 33.38443 | 126.01710 | 34176 ft | 398 kts | 199° |
| 2026-05-04 13:29 | 33.33039 | 126.00777 | 34176 ft | 398 kts | 199° |
| 2026-05-04 13:30 | 33.27812 | 125.99878 | 34175 ft | 397 kts | 199° |
| 2026-05-04 13:30 | 33.22087 | 125.98889 | 34174 ft | 402 kts | 198° |
| 2026-05-04 13:31 | 33.16550 | 125.97938 | 34176 ft | 402 kts | 198° |
| 2026-05-04 13:31 | 33.11009 | 125.96989 | 34176 ft | 402 kts | 198° |
| 2026-05-04 13:32 | 33.05451 | 125.96037 | 34173 ft | 402 kts | 198° |
| 2026-05-04 13:32 | 32.99871 | 125.95083 | 34167 ft | 402 kts | 198° |
| 2026-05-04 13:33 | 32.94343 | 125.94138 | 34160 ft | 402 kts | 198° |
| 2026-05-04 13:33 | 32.88719 | 125.93179 | 34157 ft | 402 kts | 198° |
| 2026-05-04 13:34 | 32.83173 | 125.92245 | 34153 ft | 402 kts | 198° |
| 2026-05-04 13:34 | 32.77590 | 125.91302 | 34152 ft | 402 kts | 199° |
| 2026-05-04 13:35 | 32.69292 | 125.89893 | 34152 ft | 402 kts | 199° |
| 2026-05-04 13:36 | 32.63741 | 125.88951 | 34152 ft | 402 kts | 199° |
| 2026-05-04 13:36 | 32.58223 | 125.88016 | 34152 ft | 401 kts | 199° |
| 2026-05-04 13:37 | 32.52695 | 125.87080 | 34152 ft | 401 kts | 199° |
| 2026-05-04 13:37 | 32.47182 | 125.86148 | 34152 ft | 401 kts | 199° |
| 2026-05-04 13:38 | 32.41674 | 125.85217 | 34152 ft | 401 kts | 199° |
| 2026-05-04 13:38 | 32.36136 | 125.84283 | 34152 ft | 401 kts | 199° |
| 2026-05-04 13:39 | 32.30603 | 125.83351 | 34152 ft | 401 kts | 199° |
| 2026-05-04 13:39 | 32.25097 | 125.82426 | 34151 ft | 400 kts | 199° |
| 2026-05-04 13:40 | 32.19559 | 125.81496 | 34152 ft | 400 kts | 199° |
| 2026-05-04 13:40 | 32.14056 | 125.80573 | 34152 ft | 400 kts | 199° |
| 2026-05-04 13:41 | 32.08575 | 125.79655 | 34152 ft | 400 kts | 199° |
| 2026-05-04 13:41 | 32.03092 | 125.78625 | 34151 ft | 396 kts | 202° |
| 2026-05-04 13:42 | 31.95235 | 125.76020 | 34151 ft | 385 kts | 209° |
| 2026-05-04 13:42 | 31.90207 | 125.73915 | 34151 ft | 385 kts | 209° |
| 2026-05-04 13:43 | 31.85155 | 125.71819 | 34153 ft | 385 kts | 209° |
| 2026-05-04 13:43 | 31.80099 | 125.69711 | 34152 ft | 384 kts | 209° |
| 2026-05-04 13:44 | 31.75080 | 125.67612 | 34152 ft | 384 kts | 210° |
| 2026-05-04 13:44 | 31.70062 | 125.65511 | 34151 ft | 383 kts | 210° |
| 2026-05-04 13:45 | 31.65037 | 125.63407 | 34151 ft | 383 kts | 210° |
| 2026-05-04 13:45 | 31.60044 | 125.61318 | 34152 ft | 382 kts | 210° |
| 2026-05-04 13:46 | 31.55030 | 125.59223 | 34152 ft | 381 kts | 210° |
| 2026-05-04 13:46 | 31.50049 | 125.57140 | 34152 ft | 380 kts | 210° |
| 2026-05-04 13:47 | 31.45071 | 125.55055 | 34152 ft | 379 kts | 210° |
| 2026-05-04 13:47 | 31.40092 | 125.52970 | 34152 ft | 378 kts | 210° |
| 2026-05-04 13:48 | 31.35162 | 125.50910 | 34152 ft | 377 kts | 210° |
| 2026-05-04 13:48 | 31.30238 | 125.48854 | 34152 ft | 376 kts | 210° |
| 2026-05-04 13:49 | 31.25318 | 125.46802 | 34152 ft | 375 kts | 210° |
| 2026-05-04 13:49 | 31.20396 | 125.44751 | 34151 ft | 374 kts | 211° |
| 2026-05-04 13:50 | 31.15528 | 125.42725 | 34152 ft | 373 kts | 211° |
| 2026-05-04 13:50 | 31.10626 | 125.40686 | 34151 ft | 372 kts | 211° |
| 2026-05-04 13:51 | 31.05774 | 125.38670 | 34151 ft | 371 kts | 211° |
| 2026-05-04 13:51 | 31.00878 | 125.36640 | 34151 ft | 370 kts | 211° |
| 2026-05-04 13:52 | 30.93637 | 125.33627 | 34153 ft | 369 kts | 211° |
| 2026-05-04 13:53 | 30.88795 | 125.31607 | 34154 ft | 369 kts | 211° |
| 2026-05-04 13:53 | 30.82721 | 125.29106 | 34153 ft | 368 kts | 211° |
| 2026-05-04 13:54 | 30.75481 | 125.26124 | 34152 ft | 367 kts | 211° |
| 2026-05-04 13:55 | 30.68265 | 125.23153 | 34151 ft | 366 kts | 211° |
| 2026-05-04 13:55 | 30.61081 | 125.20200 | 34151 ft | 365 kts | 211° |
| 2026-05-04 13:56 | 30.56266 | 125.18224 | 34151 ft | 364 kts | 211° |
| 2026-05-04 13:57 | 30.49081 | 125.15278 | 34153 ft | 364 kts | 211° |
| 2026-05-04 13:58 | 30.39535 | 125.11362 | 34151 ft | 363 kts | 211° |
| 2026-05-04 13:58 | 30.32372 | 125.08431 | 34151 ft | 362 kts | 212° |
| 2026-05-04 13:59 | 30.27634 | 125.06495 | 34152 ft | 362 kts | 211° |
| 2026-05-04 14:00 | 30.20520 | 125.03593 | 34152 ft | 359 kts | 211° |
| 2026-05-04 14:00 | 30.13439 | 125.00713 | 34151 ft | 359 kts | 211° |
| 2026-05-04 14:01 | 30.08798 | 124.98827 | 34151 ft | 359 kts | 211° |
| 2026-05-04 14:02 | 30.01709 | 124.95950 | 34151 ft | 359 kts | 211° |
| 2026-05-04 14:02 | 29.97041 | 124.94000 | 34151 ft | 357 kts | 212° |
| 2026-05-04 14:03 | 29.92349 | 124.91981 | 34151 ft | 357 kts | 212° |
| 2026-05-04 14:03 | 29.87661 | 124.89977 | 34152 ft | 358 kts | 212° |
| 2026-05-04 14:04 | 29.80673 | 124.87013 | 34150 ft | 358 kts | 212° |
| 2026-05-04 14:04 | 29.75987 | 124.85020 | 34151 ft | 357 kts | 212° |
| 2026-05-04 14:05 | 29.68999 | 124.82051 | 34151 ft | 357 kts | 212° |
| 2026-05-04 14:06 | 29.64354 | 124.80078 | 34151 ft | 357 kts | 212° |
| 2026-05-04 14:06 | 29.59676 | 124.78094 | 34152 ft | 358 kts | 212° |
| 2026-05-04 14:07 | 29.55034 | 124.76125 | 34151 ft | 358 kts | 212° |
| 2026-05-04 14:07 | 29.50392 | 124.74158 | 34151 ft | 358 kts | 212° |
| 2026-05-04 14:08 | 29.45714 | 124.72179 | 34152 ft | 358 kts | 212° |
| 2026-05-04 14:08 | 29.41042 | 124.70202 | 34151 ft | 359 kts | 212° |
| 2026-05-04 14:09 | 29.34041 | 124.67245 | 34151 ft | 360 kts | 212° |
| 2026-05-04 14:10 | 29.26964 | 124.64261 | 34151 ft | 360 kts | 211° |
| 2026-05-04 14:10 | 29.22245 | 124.62274 | 34151 ft | 361 kts | 211° |
| 2026-05-04 14:11 | 29.17519 | 124.60285 | 34151 ft | 361 kts | 211° |
| 2026-05-04 14:11 | 29.11324 | 124.57683 | 34151 ft | 362 kts | 211° |
| 2026-05-04 14:12 | 29.06590 | 124.55696 | 34152 ft | 363 kts | 211° |
| 2026-05-04 14:13 | 28.99534 | 124.52640 | 34151 ft | 359 kts | 213° |
| 2026-05-04 14:13 | 28.95059 | 124.50170 | 34151 ft | 354 kts | 218° |
| 2026-05-04 14:14 | 28.90827 | 124.47282 | 34151 ft | 351 kts | 221° |
| 2026-05-04 14:14 | 28.84801 | 124.42525 | 34151 ft | 350 kts | 223° |
| 2026-05-04 14:15 | 28.76783 | 124.36134 | 34150 ft | 351 kts | 222° |
| 2026-05-04 14:16 | 28.70716 | 124.31260 | 34143 ft | 353 kts | 222° |
| 2026-05-04 14:17 | 28.64669 | 124.26408 | 34135 ft | 354 kts | 222° |
| 2026-05-04 14:18 | 28.58609 | 124.21562 | 34126 ft | 354 kts | 221° |
| 2026-05-04 14:19 | 28.50494 | 124.15091 | 34123 ft | 356 kts | 221° |
| 2026-05-04 14:19 | 28.46429 | 124.11853 | 34123 ft | 356 kts | 221° |
| 2026-05-04 14:20 | 28.42375 | 124.08631 | 34123 ft | 356 kts | 221° |
| 2026-05-04 14:20 | 28.38298 | 124.05392 | 34123 ft | 357 kts | 221° |
| 2026-05-04 14:21 | 28.32001 | 124.00737 | 34122 ft | 362 kts | 217° |
| 2026-05-04 14:21 | 28.27462 | 123.98118 | 34123 ft | 367 kts | 212° |
| 2026-05-04 14:22 | 28.22749 | 123.95828 | 34120 ft | 368 kts | 211° |
| 2026-05-04 14:22 | 28.18029 | 123.93549 | 34117 ft | 369 kts | 211° |
| 2026-05-04 14:23 | 28.10938 | 123.90147 | 34115 ft | 369 kts | 211° |
| 2026-05-04 14:24 | 28.06177 | 123.87869 | 34115 ft | 369 kts | 211° |
| 2026-05-04 14:24 | 28.01451 | 123.85613 | 34117 ft | 369 kts | 211° |
| 2026-05-04 14:25 | 27.96723 | 123.83357 | 34119 ft | 369 kts | 211° |
| 2026-05-04 14:25 | 27.89647 | 123.79986 | 34122 ft | 369 kts | 211° |
| 2026-05-04 14:26 | 27.84923 | 123.77753 | 34122 ft | 369 kts | 211° |
| 2026-05-04 14:26 | 27.80209 | 123.75521 | 34120 ft | 369 kts | 211° |
| 2026-05-04 14:27 | 27.75461 | 123.73268 | 34121 ft | 370 kts | 211° |
| 2026-05-04 14:27 | 27.70678 | 123.70996 | 34122 ft | 370 kts | 211° |
| 2026-05-04 14:28 | 27.65958 | 123.68719 | 34122 ft | 368 kts | 213° |
| 2026-05-04 14:28 | 27.61418 | 123.66065 | 34121 ft | 363 kts | 217° |
| 2026-05-04 14:29 | 27.53112 | 123.59731 | 34122 ft | 360 kts | 222° |
| 2026-05-04 14:30 | 27.49045 | 123.56451 | 34120 ft | 361 kts | 222° |
| 2026-05-04 14:31 | 27.42953 | 123.51530 | 34121 ft | 361 kts | 222° |
| 2026-05-04 14:32 | 27.34779 | 123.44928 | 34121 ft | 363 kts | 222° |
| 2026-05-04 14:32 | 27.30670 | 123.41612 | 34122 ft | 363 kts | 222° |
| 2026-05-04 14:33 | 27.26549 | 123.38289 | 34121 ft | 364 kts | 222° |
| 2026-05-04 14:33 | 27.22414 | 123.34956 | 34121 ft | 364 kts | 221° |
| 2026-05-04 14:34 | 27.18266 | 123.31598 | 34122 ft | 364 kts | 222° |
| 2026-05-04 14:34 | 27.14156 | 123.28278 | 34121 ft | 365 kts | 222° |
| 2026-05-04 14:35 | 27.10026 | 123.24955 | 34121 ft | 366 kts | 222° |
| 2026-05-04 14:35 | 27.05901 | 123.21642 | 34121 ft | 366 kts | 222° |
| 2026-05-04 14:36 | 27.01750 | 123.18310 | 34121 ft | 366 kts | 221° |
| 2026-05-04 14:36 | 26.97622 | 123.15008 | 34121 ft | 367 kts | 222° |
| 2026-05-04 14:37 | 26.93490 | 123.11702 | 34121 ft | 367 kts | 222° |
| 2026-05-04 14:37 | 26.89320 | 123.08369 | 34124 ft | 368 kts | 221° |
| 2026-05-04 14:38 | 26.85091 | 123.05016 | 34125 ft | 368 kts | 221° |
| 2026-05-04 14:38 | 26.80894 | 123.01676 | 34127 ft | 368 kts | 221° |
| 2026-05-04 14:39 | 26.76731 | 122.98362 | 34131 ft | 369 kts | 222° |
| 2026-05-04 14:39 | 26.72526 | 122.95023 | 34132 ft | 369 kts | 222° |
| 2026-05-04 14:40 | 26.66215 | 122.90015 | 34126 ft | 370 kts | 222° |
| 2026-05-04 14:40 | 26.61978 | 122.86657 | 34124 ft | 370 kts | 222° |
| 2026-05-04 14:41 | 26.57774 | 122.83329 | 34123 ft | 371 kts | 221° |
| 2026-05-04 14:42 | 26.49308 | 122.76623 | 34123 ft | 372 kts | 222° |
| 2026-05-04 14:42 | 26.45097 | 122.73286 | 34123 ft | 372 kts | 222° |
| 2026-05-04 14:43 | 26.40843 | 122.69919 | 34123 ft | 373 kts | 222° |
| 2026-05-04 14:43 | 26.36626 | 122.66585 | 34123 ft | 373 kts | 222° |
| 2026-05-04 14:44 | 26.32353 | 122.63210 | 34122 ft | 374 kts | 222° |
| 2026-05-04 14:44 | 26.28085 | 122.59841 | 34123 ft | 375 kts | 222° |
| 2026-05-04 14:45 | 26.23833 | 122.56488 | 34123 ft | 375 kts | 222° |
| 2026-05-04 14:45 | 26.19560 | 122.53122 | 34123 ft | 375 kts | 222° |
| 2026-05-04 14:46 | 26.15275 | 122.49750 | 34123 ft | 376 kts | 221° |
| 2026-05-04 14:46 | 26.10983 | 122.46381 | 34123 ft | 376 kts | 221° |
| 2026-05-04 14:47 | 26.06679 | 122.43006 | 34124 ft | 376 kts | 221° |
| 2026-05-04 14:47 | 26.02403 | 122.39655 | 34123 ft | 377 kts | 222° |
| 2026-05-04 14:48 | 25.98098 | 122.36285 | 34123 ft | 379 kts | 221° |
| 2026-05-04 14:48 | 25.93760 | 122.32883 | 34124 ft | 380 kts | 221° |
| 2026-05-04 14:49 | 25.89415 | 122.29471 | 34125 ft | 380 kts | 221° |
| 2026-05-04 14:49 | 25.85115 | 122.26131 | 34124 ft | 380 kts | 221° |
| 2026-05-04 14:50 | 25.81508 | 122.23327 | 34123 ft | 380 kts | 221° |
| 2026-05-04 14:50 | 25.77175 | 122.19955 | 34123 ft | 380 kts | 221° |
| 2026-05-04 14:51 | 25.72831 | 122.16575 | 34123 ft | 380 kts | 221° |
| 2026-05-04 14:51 | 25.68453 | 122.13216 | 34122 ft | 382 kts | 219° |
| 2026-05-04 14:52 | 25.63886 | 122.10523 | 34122 ft | 389 kts | 211° |
| 2026-05-04 14:52 | 25.58707 | 122.08557 | 34118 ft | 399 kts | 202° |
| 2026-05-04 14:53 | 25.53112 | 122.07531 | 34116 ft | 411 kts | 194° |
| 2026-05-04 14:53 | 25.47356 | 122.07240 | 34115 ft | 414 kts | 192° |
| 2026-05-04 14:54 | 25.41600 | 122.07013 | 34115 ft | 415 kts | 191° |
| 2026-05-04 14:54 | 25.35803 | 122.06783 | 34113 ft | 415 kts | 191° |
| 2026-05-04 14:55 | 25.30033 | 122.06553 | 34152 ft | 417 kts | 191° |
| 2026-05-04 14:55 | 25.27129 | 122.06438 | 34335 ft | 417 kts | 191° |
| 2026-05-04 14:55 | 25.24248 | 122.06325 | 34539 ft | 416 kts | 191° |
| 2026-05-04 14:56 | 25.21342 | 122.06211 | 34710 ft | 416 kts | 191° |
| 2026-05-04 14:56 | 25.18454 | 122.06097 | 34854 ft | 416 kts | 191° |
| 2026-05-04 14:56 | 25.15534 | 122.05978 | 34998 ft | 417 kts | 191° |
| 2026-05-04 14:56 | 25.12619 | 122.05862 | 35122 ft | 417 kts | 191° |
| 2026-05-04 14:57 | 25.09696 | 122.05745 | 35223 ft | 419 kts | 191° |
| 2026-05-04 14:57 | 25.06774 | 122.05629 | 35334 ft | 420 kts | 191° |
| 2026-05-04 14:57 | 25.03863 | 122.05514 | 35458 ft | 420 kts | 191° |
| 2026-05-04 14:57 | 25.00945 | 122.05400 | 35574 ft | 421 kts | 191° |
| 2026-05-04 14:58 | 24.98015 | 122.05286 | 35687 ft | 421 kts | 191° |
| 2026-05-04 14:58 | 24.95081 | 122.05172 | 35791 ft | 422 kts | 191° |
| 2026-05-04 14:58 | 24.89139 | 122.04939 | 35962 ft | 424 kts | 191° |
| 2026-05-04 14:59 | 24.86198 | 122.04827 | 36068 ft | 425 kts | 191° |
| 2026-05-04 14:59 | 24.83255 | 122.04716 | 36108 ft | 426 kts | 191° |
| 2026-05-04 15:00 | 24.74396 | 122.04376 | 36119 ft | 426 kts | 191° |
| 2026-05-04 15:00 | 24.68504 | 122.04149 | 36121 ft | 427 kts | 191° |
| 2026-05-04 15:01 | 24.59625 | 122.03805 | 36121 ft | 427 kts | 190° |
| 2026-05-04 15:01 | 24.53698 | 122.03576 | 36118 ft | 427 kts | 190° |
| 2026-05-04 15:02 | 24.47725 | 122.03346 | 36111 ft | 427 kts | 190° |
| 2026-05-04 15:02 | 24.41742 | 122.03108 | 36102 ft | 427 kts | 191° |
| 2026-05-04 15:03 | 24.35872 | 122.02470 | 36098 ft | 422 kts | 197° |
| 2026-05-04 15:03 | 24.30167 | 122.01168 | 36095 ft | 416 kts | 202° |
| 2026-05-04 15:04 | 24.24624 | 121.99387 | 36092 ft | 414 kts | 204° |
| 2026-05-04 15:04 | 24.19115 | 121.97585 | 36088 ft | 415 kts | 204° |
| 2026-05-04 15:05 | 24.13582 | 121.95781 | 36085 ft | 415 kts | 204° |
| 2026-05-04 15:05 | 24.08025 | 121.93971 | 36081 ft | 415 kts | 204° |
| 2026-05-04 15:06 | 24.02485 | 121.92168 | 36076 ft | 415 kts | 204° |
| 2026-05-04 15:07 | 23.94123 | 121.89449 | 36071 ft | 415 kts | 204° |
| 2026-05-04 15:07 | 23.88573 | 121.87648 | 36070 ft | 415 kts | 204° |
| 2026-05-04 15:08 | 23.83026 | 121.85859 | 36069 ft | 415 kts | 204° |
| 2026-05-04 15:08 | 23.77462 | 121.84059 | 36069 ft | 415 kts | 204° |
| 2026-05-04 15:09 | 23.71932 | 121.82268 | 36068 ft | 416 kts | 204° |
| 2026-05-04 15:09 | 23.66346 | 121.80460 | 36068 ft | 413 kts | 204° |
| 2026-05-04 15:10 | 23.58080 | 121.77786 | 36068 ft | 413 kts | 204° |
| 2026-05-04 15:11 | 23.49814 | 121.75106 | 36068 ft | 414 kts | 204° |
| 2026-05-04 15:11 | 23.44296 | 121.73319 | 36070 ft | 413 kts | 204° |
| 2026-05-04 15:12 | 23.38890 | 121.71571 | 36076 ft | 413 kts | 203° |
| 2026-05-04 15:12 | 23.33365 | 121.69791 | 36083 ft | 413 kts | 203° |
| 2026-05-04 15:13 | 23.27813 | 121.68002 | 36089 ft | 413 kts | 203° |
| 2026-05-04 15:13 | 23.22304 | 121.66229 | 36092 ft | 414 kts | 203° |
| 2026-05-04 15:14 | 23.16745 | 121.64441 | 36094 ft | 414 kts | 203° |
| 2026-05-04 15:14 | 23.11230 | 121.62669 | 36095 ft | 414 kts | 203° |
| 2026-05-04 15:15 | 23.05718 | 121.60839 | 36095 ft | 412 kts | 205° |
| 2026-05-04 15:15 | 23.00388 | 121.58519 | 36095 ft | 408 kts | 211° |
| 2026-05-04 15:16 | 22.92990 | 121.54022 | 36095 ft | 403 kts | 219° |
| 2026-05-04 15:17 | 22.86072 | 121.48814 | 36095 ft | 402 kts | 219° |
| 2026-05-04 15:17 | 22.79168 | 121.43602 | 36094 ft | 402 kts | 219° |
| 2026-05-04 15:18 | 22.74535 | 121.40095 | 36095 ft | 403 kts | 219° |
| 2026-05-04 15:19 | 22.67854 | 121.34586 | 36097 ft | 401 kts | 223° |
| 2026-05-04 15:19 | 22.61366 | 121.28807 | 36095 ft | 401 kts | 223° |
| 2026-05-04 15:20 | 22.57042 | 121.24969 | 36095 ft | 401 kts | 223° |
| 2026-05-04 15:20 | 22.52724 | 121.21144 | 36095 ft | 401 kts | 223° |
| 2026-05-04 15:21 | 22.48388 | 121.17309 | 36094 ft | 401 kts | 223° |
| 2026-05-04 15:22 | 22.41857 | 121.11539 | 36085 ft | 401 kts | 223° |
| 2026-05-04 15:22 | 22.35375 | 121.05821 | 36069 ft | 402 kts | 223° |
| 2026-05-04 15:23 | 22.31005 | 121.01968 | 36056 ft | 402 kts | 223° |
| 2026-05-04 15:23 | 22.26669 | 120.98148 | 36043 ft | 402 kts | 223° |
| 2026-05-04 15:24 | 22.17985 | 120.90510 | 36024 ft | 402 kts | 223° |
| 2026-05-04 15:25 | 22.13617 | 120.86674 | 36024 ft | 402 kts | 223° |
| 2026-05-04 15:26 | 22.07096 | 120.80952 | 36031 ft | 402 kts | 223° |
| 2026-05-04 15:26 | 22.00565 | 120.75227 | 36038 ft | 402 kts | 223° |
| 2026-05-04 15:27 | 21.94032 | 120.69504 | 36040 ft | 405 kts | 223° |
| 2026-05-04 15:28 | 21.87451 | 120.63766 | 36041 ft | 405 kts | 223° |
| 2026-05-04 15:29 | 21.80850 | 120.58025 | 36040 ft | 404 kts | 223° |
| 2026-05-04 15:30 | 21.65537 | 120.44698 | 36040 ft | 404 kts | 223° |
| 2026-05-04 15:31 | 21.58933 | 120.38959 | 36040 ft | 404 kts | 223° |
| 2026-05-04 15:32 | 21.47988 | 120.29427 | 36040 ft | 404 kts | 223° |
| 2026-05-04 15:34 | 21.37047 | 120.19934 | 36040 ft | 405 kts | 223° |
| 2026-05-04 15:34 | 21.30415 | 120.14199 | 35694 ft | 406 kts | 223° |
| 2026-05-04 15:35 | 21.26048 | 120.10426 | 35198 ft | 408 kts | 223° |
| 2026-05-04 15:35 | 21.23834 | 120.08516 | 35052 ft | 408 kts | 223° |
| 2026-05-04 15:36 | 21.17184 | 120.02779 | 35042 ft | 409 kts | 222° |
| 2026-05-04 15:36 | 21.13254 | 119.99395 | 35041 ft | 409 kts | 222° |
| 2026-05-04 15:37 | 21.08775 | 119.95540 | 35040 ft | 409 kts | 222° |
| 2026-05-04 15:37 | 21.04285 | 119.91678 | 35033 ft | 409 kts | 222° |
| 2026-05-04 15:38 | 20.99882 | 119.87738 | 35023 ft | 408 kts | 226° |
| 2026-05-04 15:38 | 20.95830 | 119.83472 | 35015 ft | 408 kts | 228° |
| 2026-05-04 15:39 | 20.91852 | 119.79179 | 35007 ft | 408 kts | 228° |
| 2026-05-04 15:40 | 20.85882 | 119.72771 | 34996 ft | 409 kts | 228° |
| 2026-05-04 15:41 | 20.78201 | 119.64532 | 34989 ft | 410 kts | 228° |
| 2026-05-04 15:41 | 20.74207 | 119.60239 | 34989 ft | 410 kts | 228° |
| 2026-05-04 15:42 | 20.70206 | 119.55939 | 34988 ft | 410 kts | 228° |
| 2026-05-04 15:42 | 20.66176 | 119.51613 | 34987 ft | 410 kts | 228° |
| 2026-05-04 15:43 | 20.62218 | 119.47366 | 34987 ft | 411 kts | 228° |
| 2026-05-04 15:43 | 20.58442 | 119.43317 | 34988 ft | 411 kts | 228° |
| 2026-05-04 15:44 | 20.54750 | 119.39363 | 34988 ft | 411 kts | 228° |
| 2026-05-04 15:44 | 20.50724 | 119.35052 | 34988 ft | 411 kts | 228° |
| 2026-05-04 15:45 | 20.46698 | 119.30720 | 34988 ft | 411 kts | 228° |
| 2026-05-04 15:45 | 20.42668 | 119.26392 | 34985 ft | 412 kts | 227° |
| 2026-05-04 15:46 | 20.38615 | 119.22053 | 34980 ft | 412 kts | 227° |
| 2026-05-04 15:46 | 20.34585 | 119.17750 | 34973 ft | 412 kts | 227° |
| 2026-05-04 15:47 | 20.30499 | 119.13391 | 34967 ft | 412 kts | 227° |
| 2026-05-04 15:47 | 20.26468 | 119.09095 | 34962 ft | 412 kts | 227° |
| 2026-05-04 15:48 | 20.22404 | 119.04768 | 34959 ft | 412 kts | 227° |
| 2026-05-04 15:48 | 20.16316 | 118.98290 | 34961 ft | 413 kts | 227° |
| 2026-05-04 15:49 | 20.12248 | 118.93967 | 34964 ft | 412 kts | 227° |
| 2026-05-04 15:49 | 20.08178 | 118.89645 | 34968 ft | 412 kts | 227° |
| 2026-05-04 15:50 | 20.04106 | 118.85326 | 34973 ft | 413 kts | 227° |
| 2026-05-04 15:50 | 20.00018 | 118.80992 | 34978 ft | 413 kts | 227° |
| 2026-05-04 15:51 | 19.95947 | 118.76675 | 34982 ft | 416 kts | 227° |
| 2026-05-04 15:51 | 19.91852 | 118.72343 | 34985 ft | 416 kts | 227° |
| 2026-05-04 15:52 | 19.87712 | 118.67978 | 34986 ft | 417 kts | 227° |
| 2026-05-04 15:52 | 19.83610 | 118.63670 | 34986 ft | 416 kts | 227° |
| 2026-05-04 15:53 | 19.79463 | 118.59302 | 34985 ft | 417 kts | 227° |
| 2026-05-04 15:53 | 19.75349 | 118.54967 | 34980 ft | 417 kts | 227° |
| 2026-05-04 15:54 | 19.71232 | 118.50627 | 34974 ft | 417 kts | 227° |
| 2026-05-04 15:54 | 19.67106 | 118.46280 | 34968 ft | 417 kts | 227° |
| 2026-05-04 15:55 | 19.63007 | 118.41964 | 34963 ft | 417 kts | 227° |
| 2026-05-04 15:55 | 19.58850 | 118.37590 | 34960 ft | 417 kts | 227° |
| 2026-05-04 15:56 | 19.54742 | 118.33265 | 34960 ft | 417 kts | 227° |
| 2026-05-04 15:56 | 19.50621 | 118.28910 | 34960 ft | 417 kts | 226° |
| 2026-05-04 15:57 | 19.46521 | 118.24595 | 34959 ft | 417 kts | 226° |
| 2026-05-04 15:57 | 19.42369 | 118.20239 | 34959 ft | 417 kts | 226° |
| 2026-05-04 15:58 | 19.38258 | 118.15932 | 34959 ft | 417 kts | 226° |
| 2026-05-04 15:58 | 19.34120 | 118.11599 | 34959 ft | 417 kts | 226° |
| 2026-05-04 15:59 | 19.29974 | 118.07258 | 34959 ft | 418 kts | 226° |
| 2026-05-04 15:59 | 19.25825 | 118.02918 | 34960 ft | 418 kts | 226° |
| 2026-05-04 16:00 | 19.21690 | 117.98597 | 34963 ft | 418 kts | 226° |
| 2026-05-04 16:00 | 19.17547 | 117.94272 | 34967 ft | 419 kts | 226° |
| 2026-05-04 16:01 | 19.13381 | 117.89927 | 34972 ft | 419 kts | 226° |
| 2026-05-04 16:01 | 19.09220 | 117.85590 | 34977 ft | 419 kts | 226° |
| 2026-05-04 16:02 | 19.05082 | 117.81283 | 34982 ft | 419 kts | 226° |
| 2026-05-04 16:03 | 18.98835 | 117.74777 | 34985 ft | 420 kts | 226° |
| 2026-05-04 16:03 | 18.94656 | 117.70428 | 34986 ft | 420 kts | 226° |
| 2026-05-04 16:04 | 18.90511 | 117.66122 | 34986 ft | 420 kts | 226° |
| 2026-05-04 16:04 | 18.84233 | 117.59643 | 34986 ft | 420 kts | 226° |
| 2026-05-04 16:05 | 18.80045 | 117.55315 | 34986 ft | 420 kts | 226° |
| 2026-05-04 16:06 | 18.73793 | 117.48845 | 34986 ft | 421 kts | 226° |
| 2026-05-04 16:07 | 18.65392 | 117.40155 | 34983 ft | 421 kts | 226° |
| 2026-05-04 16:08 | 18.57030 | 117.31496 | 34972 ft | 421 kts | 226° |
| 2026-05-04 16:09 | 18.46592 | 117.20695 | 34960 ft | 422 kts | 226° |
| 2026-05-04 16:10 | 18.38743 | 117.12609 | 34959 ft | 422 kts | 226° |
| 2026-05-04 16:11 | 18.30345 | 117.03972 | 34962 ft | 422 kts | 226° |
| 2026-05-04 16:12 | 18.17755 | 116.91047 | 34976 ft | 422 kts | 226° |
| 2026-05-04 16:13 | 18.09349 | 116.82432 | 34984 ft | 421 kts | 226° |
| 2026-05-04 16:14 | 18.00935 | 116.73823 | 34983 ft | 421 kts | 226° |
| 2026-05-04 16:16 | 17.90407 | 116.63067 | 34968 ft | 423 kts | 226° |
| 2026-05-04 16:17 | 17.79813 | 116.52301 | 34961 ft | 423 kts | 226° |
| 2026-05-04 16:18 | 17.71357 | 116.43704 | 35251 ft | 423 kts | 226° |
| 2026-05-04 16:19 | 17.65051 | 116.37296 | 35806 ft | 420 kts | 226° |
| 2026-05-04 16:19 | 17.60850 | 116.33020 | 35949 ft | 420 kts | 226° |
| 2026-05-04 16:20 | 17.50333 | 116.22302 | 35959 ft | 420 kts | 226° |
| 2026-05-04 16:22 | 17.39832 | 116.11657 | 35959 ft | 421 kts | 226° |
| 2026-05-04 16:23 | 17.27204 | 115.98886 | 35962 ft | 421 kts | 226° |
| 2026-05-04 16:25 | 17.14564 | 115.86128 | 35959 ft | 422 kts | 225° |
| 2026-05-04 16:26 | 16.99862 | 115.71320 | 35959 ft | 422 kts | 225° |
| 2026-05-04 16:28 | 16.89277 | 115.60683 | 35960 ft | 423 kts | 225° |
| 2026-05-04 16:29 | 16.74383 | 115.45798 | 35959 ft | 423 kts | 225° |
| 2026-05-04 16:31 | 16.63770 | 115.35177 | 35959 ft | 423 kts | 225° |
| 2026-05-04 16:32 | 16.51012 | 115.22374 | 35959 ft | 424 kts | 225° |
| 2026-05-04 16:33 | 16.42485 | 115.13862 | 35960 ft | 424 kts | 225° |
| 2026-05-04 16:34 | 16.36116 | 115.07512 | 35966 ft | 425 kts | 225° |
| 2026-05-04 16:35 | 16.23278 | 114.94736 | 35975 ft | 425 kts | 225° |
| 2026-05-04 16:36 | 16.16895 | 114.88393 | 35970 ft | 425 kts | 225° |
| 2026-05-04 16:37 | 16.10473 | 114.82016 | 35962 ft | 426 kts | 225° |
| 2026-05-04 16:38 | 16.01910 | 114.73522 | 35959 ft | 426 kts | 225° |
| 2026-05-04 16:39 | 15.91129 | 114.62843 | 35959 ft | 429 kts | 225° |
| 2026-05-04 16:40 | 15.82475 | 114.54327 | 35959 ft | 429 kts | 225° |
| 2026-05-04 16:41 | 15.71641 | 114.43640 | 35959 ft | 428 kts | 225° |
| 2026-05-04 16:43 | 15.60833 | 114.32973 | 35959 ft | 428 kts | 225° |
| 2026-05-04 16:43 | 15.54360 | 114.26562 | 35959 ft | 429 kts | 225° |
| 2026-05-04 16:45 | 15.41364 | 114.13772 | 35959 ft | 430 kts | 225° |
| 2026-05-04 16:46 | 15.30510 | 114.03117 | 35959 ft | 431 kts | 225° |